Terminal Aerodrome Forecast
Issued by NWS

Home | Current Version | Previous Version | Text Only | Print | Product List | Glossary Off
Versions: 1 2 3 4 5 6 7 8 9 10 11 12 13 14 15 16 17 18 19 20 21

288
FTUS43 KIWX 221130
TAFSBN
TAF
KSBN 221130Z 2212/2312 24005KT P6SM BKN250
     FM221800 23010KT P6SM VCTS BKN040CB
     FM230100 28007KT P6SM BKN100=

USA.gov is the U.S. government's official web portal to all federal, state and local government web resources and services.